sensor_id;sensor_type;location;lat;lon;timestamp;P1;durP1;ratioP1;P2;durP2;ratioP2
11988;SDS011;6054;50.966;7.094;2022-10-31T00:01:17;8.50;;;4.68;;
11988;SDS011;6054;50.966;7.094;2022-10-31T00:03:46;7.47;;;4.38;;
11988;SDS011;6054;50.966;7.094;2022-10-31T00:06:13;10.75;;;4.30;;
11988;SDS011;6054;50.966;7.094;2022-10-31T00:08:43;8.63;;;3.90;;
11988;SDS011;6054;50.966;7.094;2022-10-31T00:11:10;10.52;;;3.80;;
11988;SDS011;6054;50.966;7.094;2022-10-31T00:13:36;7.72;;;3.40;;
11988;SDS011;6054;50.966;7.094;2022-10-31T00:16:12;7.03;;;3.55;;
11988;SDS011;6054;50.966;7.094;2022-10-31T00:18:39;9.82;;;4.60;;
11988;SDS011;6054;50.966;7.094;2022-10-31T00:21:06;9.60;;;3.50;;
11988;SDS011;6054;50.966;7.094;2022-10-31T00:23:32;11.68;;;4.00;;
11988;SDS011;6054;50.966;7.094;2022-10-31T00:26:00;8.38;;;3.33;;
11988;SDS011;6054;50.966;7.094;2022-10-31T00:28:27;6.18;;;4.40;;
11988;SDS011;6054;50.966;7.094;2022-10-31T00:30:57;11.90;;;4.03;;
11988;SDS011;6054;50.966;7.094;2022-10-31T00:33:26;9.18;;;3.95;;
11988;SDS011;6054;50.966;7.094;2022-10-31T00:35:53;8.80;;;3.95;;
11988;SDS011;6054;50.966;7.094;2022-10-31T00:38:19;10.93;;;4.30;;
11988;SDS011;6054;50.966;7.094;2022-10-31T00:40:46;7.15;;;4.13;;
11988;SDS011;6054;50.966;7.094;2022-10-31T00:43:13;10.95;;;4.07;;
11988;SDS011;6054;50.966;7.094;2022-10-31T00:45:40;9.88;;;4.47;;
11988;SDS011;6054;50.966;7.094;2022-10-31T00:48:08;10.10;;;4.00;;
11988;SDS011;6054;50.966;7.094;2022-10-31T00:50:36;10.95;;;4.32;;
11988;SDS011;6054;50.966;7.094;2022-10-31T00:53:03;9.07;;;4.43;;
11988;SDS011;6054;50.966;7.094;2022-10-31T00:55:29;6.03;;;4.47;;
11988;SDS011;6054;50.966;7.094;2022-10-31T00:57:56;6.22;;;4.10;;
11988;SDS011;6054;50.966;7.094;2022-10-31T01:00:23;5.75;;;4.18;;
11988;SDS011;6054;50.966;7.094;2022-10-31T01:02:50;10.70;;;4.38;;
11988;SDS011;6054;50.966;7.094;2022-10-31T01:05:16;7.82;;;4.72;;
11988;SDS011;6054;50.966;7.094;2022-10-31T01:07:45;7.13;;;4.07;;
11988;SDS011;6054;50.966;7.094;2022-10-31T01:10:11;10.27;;;4.03;;
11988;SDS011;6054;50.966;7.094;2022-10-31T01:12:39;7.63;;;3.78;;
11988;SDS011;6054;50.966;7.094;2022-10-31T01:15:07;6.18;;;4.40;;
11988;SDS011;6054;50.966;7.094;2022-10-31T01:17:35;5.40;;;4.00;;
11988;SDS011;6054;50.966;7.094;2022-10-31T01:20:01;9.95;;;4.10;;
11988;SDS011;6054;50.966;7.094;2022-10-31T01:22:29;7.30;;;3.97;;
11988;SDS011;6054;50.966;7.094;2022-10-31T01:24:57;11.55;;;4.38;;
11988;SDS011;6054;50.966;7.094;2022-10-31T01:27:24;9.40;;;4.32;;
11988;SDS011;6054;50.966;7.094;2022-10-31T01:29:51;10.15;;;4.72;;
11988;SDS011;6054;50.966;7.094;2022-10-31T01:32:18;12.68;;;4.45;;
11988;SDS011;6054;50.966;7.094;2022-10-31T01:34:44;8.65;;;4.30;;
11988;SDS011;6054;50.966;7.094;2022-10-31T01:37:11;12.27;;;4.60;;
11988;SDS011;6054;50.966;7.094;2022-10-31T01:39:38;10.68;;;4.57;;
11988;SDS011;6054;50.966;7.094;2022-10-31T01:42:06;6.35;;;4.43;;
11988;SDS011;6054;50.966;7.094;2022-10-31T01:44:50;8.32;;;4.32;;
11988;SDS011;6054;50.966;7.094;2022-10-31T01:47:19;9.73;;;4.53;;
11988;SDS011;6054;50.966;7.094;2022-10-31T01:49:54;6.10;;;3.92;;
11988;SDS011;6054;50.966;7.094;2022-10-31T01:52:25;6.68;;;4.50;;
11988;SDS011;6054;50.966;7.094;2022-10-31T01:54:56;10.80;;;4.20;;
11988;SDS011;6054;50.966;7.094;2022-10-31T01:57:28;15.55;;;4.93;;
11988;SDS011;6054;50.966;7.094;2022-10-31T01:59:59;6.68;;;4.07;;
11988;SDS011;6054;50.966;7.094;2022-10-31T02:02:29;6.32;;;4.20;;
11988;SDS011;6054;50.966;7.094;2022-10-31T02:04:57;9.93;;;4.35;;
11988;SDS011;6054;50.966;7.094;2022-10-31T02:07:30;7.10;;;4.10;;
11988;SDS011;6054;50.966;7.094;2022-10-31T02:10:02;7.70;;;4.10;;
11988;SDS011;6054;50.966;7.094;2022-10-31T02:12:31;10.95;;;4.35;;
11988;SDS011;6054;50.966;7.094;2022-10-31T02:15:01;11.65;;;4.40;;
11988;SDS011;6054;50.966;7.094;2022-10-31T02:17:28;6.07;;;4.18;;
11988;SDS011;6054;50.966;7.094;2022-10-31T02:20:00;14.13;;;4.18;;
11988;SDS011;6054;50.966;7.094;2022-10-31T02:22:33;8.43;;;4.40;;
11988;SDS011;6054;50.966;7.094;2022-10-31T02:25:13;9.38;;;4.90;;
11988;SDS011;6054;50.966;7.094;2022-10-31T02:28:00;8.13;;;4.15;;
11988;SDS011;6054;50.966;7.094;2022-10-31T02:30:52;13.15;;;4.20;;
11988;SDS011;6054;50.966;7.094;2022-10-31T02:33:38;12.15;;;4.47;;
11988;SDS011;6054;50.966;7.094;2022-10-31T02:36:10;10.55;;;4.50;;
11988;SDS011;6054;50.966;7.094;2022-10-31T02:38:43;9.80;;;4.40;;
11988;SDS011;6054;50.966;7.094;2022-10-31T02:41:18;10.55;;;4.15;;
11988;SDS011;6054;50.966;7.094;2022-10-31T02:43:54;7.90;;;3.92;;
11988;SDS011;6054;50.966;7.094;2022-10-31T02:46:30;9.65;;;4.50;;
11988;SDS011;6054;50.966;7.094;2022-10-31T02:49:02;7.97;;;4.00;;
11988;SDS011;6054;50.966;7.094;2022-10-31T02:51:33;6.55;;;4.13;;
11988;SDS011;6054;50.966;7.094;2022-10-31T02:54:00;9.68;;;4.65;;
11988;SDS011;6054;50.966;7.094;2022-10-31T02:56:27;8.85;;;4.47;;
11988;SDS011;6054;50.966;7.094;2022-10-31T02:58:54;8.23;;;4.57;;
11988;SDS011;6054;50.966;7.094;2022-10-31T03:07:14;8.73;;;4.57;;
11988;SDS011;6054;50.966;7.094;2022-10-31T03:09:50;8.30;;;4.22;;
11988;SDS011;6054;50.966;7.094;2022-10-31T03:12:26;9.05;;;4.00;;
11988;SDS011;6054;50.966;7.094;2022-10-31T03:14:56;10.68;;;4.72;;
11988;SDS011;6054;50.966;7.094;2022-10-31T03:17:33;8.27;;;4.20;;
11988;SDS011;6054;50.966;7.094;2022-10-31T03:20:04;11.93;;;4.72;;
11988;SDS011;6054;50.966;7.094;2022-10-31T03:22:35;7.03;;;4.45;;
11988;SDS011;6054;50.966;7.094;2022-10-31T03:25:05;14.02;;;4.40;;
11988;SDS011;6054;50.966;7.094;2022-10-31T03:27:35;8.40;;;4.40;;
11988;SDS011;6054;50.966;7.094;2022-10-31T03:30:04;9.07;;;5.53;;
11988;SDS011;6054;50.966;7.094;2022-10-31T03:32:34;8.82;;;5.10;;
11988;SDS011;6054;50.966;7.094;2022-10-31T03:35:07;9.07;;;4.10;;
11988;SDS011;6054;50.966;7.094;2022-10-31T03:37:35;9.95;;;4.50;;
11988;SDS011;6054;50.966;7.094;2022-10-31T03:40:04;8.85;;;4.32;;
11988;SDS011;6054;50.966;7.094;2022-10-31T03:42:34;13.15;;;4.90;;
11988;SDS011;6054;50.966;7.094;2022-10-31T03:45:05;20.75;;;5.38;;
11988;SDS011;6054;50.966;7.094;2022-10-31T03:47:38;7.53;;;3.88;;
11988;SDS011;6054;50.966;7.094;2022-10-31T03:50:06;9.00;;;4.90;;
11988;SDS011;6054;50.966;7.094;2022-10-31T03:52:35;8.13;;;3.95;;
11988;SDS011;6054;50.966;7.094;2022-10-31T03:55:07;7.03;;;4.88;;
11988;SDS011;6054;50.966;7.094;2022-10-31T03:57:37;7.93;;;4.38;;
11988;SDS011;6054;50.966;7.094;2022-10-31T04:00:10;13.82;;;4.93;;
11988;SDS011;6054;50.966;7.094;2022-10-31T04:02:40;7.55;;;4.43;;
11988;SDS011;6054;50.966;7.094;2022-10-31T04:05:12;6.00;;;4.28;;
11988;SDS011;6054;50.966;7.094;2022-10-31T04:07:41;9.45;;;4.50;;
11988;SDS011;6054;50.966;7.094;2022-10-31T04:10:13;11.05;;;4.43;;
11988;SDS011;6054;50.966;7.094;2022-10-31T04:12:41;9.98;;;4.32;;
11988;SDS011;6054;50.966;7.094;2022-10-31T04:15:11;8.23;;;4.45;;
11988;SDS011;6054;50.966;7.094;2022-10-31T04:17:40;10.65;;;4.25;;
11988;SDS011;6054;50.966;7.094;2022-10-31T04:20:10;7.95;;;4.43;;
11988;SDS011;6054;50.966;7.094;2022-10-31T04:22:37;10.32;;;4.20;;
11988;SDS011;6054;50.966;7.094;2022-10-31T04:25:04;9.75;;;4.22;;
11988;SDS011;6054;50.966;7.094;2022-10-31T04:27:31;6.07;;;3.92;;
11988;SDS011;6054;50.966;7.094;2022-10-31T04:29:58;8.57;;;4.30;;
11988;SDS011;6054;50.966;7.094;2022-10-31T04:32:25;7.78;;;4.28;;
11988;SDS011;6054;50.966;7.094;2022-10-31T04:34:53;6.32;;;3.92;;
11988;SDS011;6054;50.966;7.094;2022-10-31T04:37:20;6.28;;;4.53;;
11988;SDS011;6054;50.966;7.094;2022-10-31T04:39:47;11.93;;;4.45;;
11988;SDS011;6054;50.966;7.094;2022-10-31T04:42:13;10.88;;;4.32;;
11988;SDS011;6054;50.966;7.094;2022-10-31T04:44:40;7.82;;;4.18;;
11988;SDS011;6054;50.966;7.094;2022-10-31T04:47:07;9.73;;;4.53;;
11988;SDS011;6054;50.966;7.094;2022-10-31T04:49:33;8.75;;;5.03;;
11988;SDS011;6054;50.966;7.094;2022-10-31T04:52:02;7.30;;;4.30;;
11988;SDS011;6054;50.966;7.094;2022-10-31T04:54:28;9.32;;;5.00;;
11988;SDS011;6054;50.966;7.094;2022-10-31T04:56:55;7.72;;;4.72;;
11988;SDS011;6054;50.966;7.094;2022-10-31T04:59:23;9.23;;;5.30;;
11988;SDS011;6054;50.966;7.094;2022-10-31T05:01:49;8.20;;;4.50;;
11988;SDS011;6054;50.966;7.094;2022-10-31T05:04:16;9.70;;;4.90;;
11988;SDS011;6054;50.966;7.094;2022-10-31T05:06:43;9.25;;;4.05;;
11988;SDS011;6054;50.966;7.094;2022-10-31T05:09:11;7.18;;;4.63;;
11988;SDS011;6054;50.966;7.094;2022-10-31T05:11:38;8.90;;;4.35;;
11988;SDS011;6054;50.966;7.094;2022-10-31T05:14:04;11.30;;;4.88;;
11988;SDS011;6054;50.966;7.094;2022-10-31T05:16:31;7.25;;;4.50;;
11988;SDS011;6054;50.966;7.094;2022-10-31T05:18:58;6.13;;;4.28;;
11988;SDS011;6054;50.966;7.094;2022-10-31T05:21:25;9.75;;;4.35;;
11988;SDS011;6054;50.966;7.094;2022-10-31T05:23:51;10.20;;;4.20;;
11988;SDS011;6054;50.966;7.094;2022-10-31T05:26:19;7.03;;;4.20;;
11988;SDS011;6054;50.966;7.094;2022-10-31T05:28:46;7.95;;;4.65;;
11988;SDS011;6054;50.966;7.094;2022-10-31T05:31:13;6.68;;;4.75;;
11988;SDS011;6054;50.966;7.094;2022-10-31T05:33:40;7.82;;;4.70;;
11988;SDS011;6054;50.966;7.094;2022-10-31T05:36:07;10.00;;;5.30;;
11988;SDS011;6054;50.966;7.094;2022-10-31T05:38:33;7.93;;;4.63;;
11988;SDS011;6054;50.966;7.094;2022-10-31T05:41:00;11.90;;;4.70;;
11988;SDS011;6054;50.966;7.094;2022-10-31T05:43:28;7.50;;;4.55;;
11988;SDS011;6054;50.966;7.094;2022-10-31T05:45:55;6.22;;;4.20;;
11988;SDS011;6054;50.966;7.094;2022-10-31T05:48:23;8.32;;;4.40;;
11988;SDS011;6054;50.966;7.094;2022-10-31T05:50:49;8.73;;;4.85;;
11988;SDS011;6054;50.966;7.094;2022-10-31T05:53:17;7.15;;;4.18;;
11988;SDS011;6054;50.966;7.094;2022-10-31T05:55:43;10.13;;;4.90;;
11988;SDS011;6054;50.966;7.094;2022-10-31T05:58:10;12.13;;;5.28;;
11988;SDS011;6054;50.966;7.094;2022-10-31T06:00:38;9.02;;;4.78;;
11988;SDS011;6054;50.966;7.094;2022-10-31T06:03:06;6.60;;;4.47;;
11988;SDS011;6054;50.966;7.094;2022-10-31T06:05:34;12.85;;;5.10;;
11988;SDS011;6054;50.966;7.094;2022-10-31T06:08:01;7.53;;;4.88;;
11988;SDS011;6054;50.966;7.094;2022-10-31T06:10:28;8.85;;;4.35;;
11988;SDS011;6054;50.966;7.094;2022-10-31T06:12:55;14.75;;;5.03;;
11988;SDS011;6054;50.966;7.094;2022-10-31T06:15:22;7.82;;;4.60;;
11988;SDS011;6054;50.966;7.094;2022-10-31T06:17:58;5.53;;;4.32;;
11988;SDS011;6054;50.966;7.094;2022-10-31T06:20:25;7.25;;;5.20;;
11988;SDS011;6054;50.966;7.094;2022-10-31T06:22:52;11.20;;;4.60;;
11988;SDS011;6054;50.966;7.094;2022-10-31T06:25:19;6.45;;;4.68;;
11988;SDS011;6054;50.966;7.094;2022-10-31T06:27:45;6.18;;;4.15;;
11988;SDS011;6054;50.966;7.094;2022-10-31T06:30:12;7.90;;;4.35;;
11988;SDS011;6054;50.966;7.094;2022-10-31T06:32:39;7.63;;;4.35;;
11988;SDS011;6054;50.966;7.094;2022-10-31T06:35:08;11.05;;;4.32;;
11988;SDS011;6054;50.966;7.094;2022-10-31T06:37:34;11.43;;;4.20;;
11988;SDS011;6054;50.966;7.094;2022-10-31T06:40:01;6.57;;;4.43;;
11988;SDS011;6054;50.966;7.094;2022-10-31T06:42:28;10.02;;;4.63;;
11988;SDS011;6054;50.966;7.094;2022-10-31T06:44:55;10.68;;;4.47;;
11988;SDS011;6054;50.966;7.094;2022-10-31T06:47:22;6.78;;;3.97;;
11988;SDS011;6054;50.966;7.094;2022-10-31T06:49:49;8.20;;;4.10;;
11988;SDS011;6054;50.966;7.094;2022-10-31T06:52:17;7.88;;;4.22;;
11988;SDS011;6054;50.966;7.094;2022-10-31T06:54:43;9.23;;;5.43;;
11988;SDS011;6054;50.966;7.094;2022-10-31T06:57:10;9.57;;;5.20;;
11988;SDS011;6054;50.966;7.094;2022-10-31T06:59:37;8.13;;;4.88;;
11988;SDS011;6054;50.966;7.094;2022-10-31T07:02:03;8.43;;;5.15;;
11988;SDS011;6054;50.966;7.094;2022-10-31T07:04:30;10.25;;;5.22;;
11988;SDS011;6054;50.966;7.094;2022-10-31T07:06:57;8.02;;;4.85;;
11988;SDS011;6054;50.966;7.094;2022-10-31T07:09:25;8.02;;;4.10;;
11988;SDS011;6054;50.966;7.094;2022-10-31T07:11:52;11.30;;;4.93;;
11988;SDS011;6054;50.966;7.094;2022-10-31T07:14:19;10.77;;;4.47;;
11988;SDS011;6054;50.966;7.094;2022-10-31T07:16:47;6.13;;;4.05;;
11988;SDS011;6054;50.966;7.094;2022-10-31T07:19:15;9.43;;;5.00;;
11988;SDS011;6054;50.966;7.094;2022-10-31T07:21:42;10.93;;;4.80;;
11988;SDS011;6054;50.966;7.094;2022-10-31T07:24:09;9.02;;;4.43;;
11988;SDS011;6054;50.966;7.094;2022-10-31T07:26:37;10.93;;;4.68;;
11988;SDS011;6054;50.966;7.094;2022-10-31T07:29:04;7.68;;;4.65;;
11988;SDS011;6054;50.966;7.094;2022-10-31T07:31:31;9.10;;;5.20;;
11988;SDS011;6054;50.966;7.094;2022-10-31T07:33:57;16.95;;;5.38;;
11988;SDS011;6054;50.966;7.094;2022-10-31T07:36:26;11.35;;;5.38;;
11988;SDS011;6054;50.966;7.094;2022-10-31T07:38:53;9.07;;;5.95;;
11988;SDS011;6054;50.966;7.094;2022-10-31T07:41:20;12.65;;;6.20;;
11988;SDS011;6054;50.966;7.094;2022-10-31T07:43:48;13.57;;;5.80;;
11988;SDS011;6054;50.966;7.094;2022-10-31T07:46:15;9.95;;;6.03;;
11988;SDS011;6054;50.966;7.094;2022-10-31T07:48:42;7.93;;;5.22;;
11988;SDS011;6054;50.966;7.094;2022-10-31T07:51:09;10.15;;;5.75;;
11988;SDS011;6054;50.966;7.094;2022-10-31T07:53:35;13.23;;;5.47;;
11988;SDS011;6054;50.966;7.094;2022-10-31T07:56:02;11.35;;;5.50;;
11988;SDS011;6054;50.966;7.094;2022-10-31T07:58:29;7.22;;;5.05;;
11988;SDS011;6054;50.966;7.094;2022-10-31T08:00:57;12.23;;;8.48;;
11988;SDS011;6054;50.966;7.094;2022-10-31T08:03:24;11.07;;;5.57;;
11988;SDS011;6054;50.966;7.094;2022-10-31T08:05:51;7.55;;;5.50;;
11988;SDS011;6054;50.966;7.094;2022-10-31T08:08:18;10.48;;;5.95;;
11988;SDS011;6054;50.966;7.094;2022-10-31T08:10:44;13.07;;;5.72;;
11988;SDS011;6054;50.966;7.094;2022-10-31T08:13:12;11.98;;;6.13;;
11988;SDS011;6054;50.966;7.094;2022-10-31T08:15:39;8.68;;;5.53;;
11988;SDS011;6054;50.966;7.094;2022-10-31T08:18:10;7.50;;;5.50;;
11988;SDS011;6054;50.966;7.094;2022-10-31T08:20:38;9.20;;;5.43;;
11988;SDS011;6054;50.966;7.094;2022-10-31T08:23:05;13.10;;;5.80;;
11988;SDS011;6054;50.966;7.094;2022-10-31T08:25:32;9.15;;;5.50;;
11988;SDS011;6054;50.966;7.094;2022-10-31T08:28:00;8.73;;;5.47;;
11988;SDS011;6054;50.966;7.094;2022-10-31T08:30:28;8.52;;;6.30;;
11988;SDS011;6054;50.966;7.094;2022-10-31T08:32:57;8.45;;;5.93;;
11988;SDS011;6054;50.966;7.094;2022-10-31T08:35:26;11.70;;;5.78;;
11988;SDS011;6054;50.966;7.094;2022-10-31T08:37:53;10.65;;;6.35;;
11988;SDS011;6054;50.966;7.094;2022-10-31T08:40:20;9.23;;;6.10;;
11988;SDS011;6054;50.966;7.094;2022-10-31T08:42:54;9.13;;;6.40;;
11988;SDS011;6054;50.966;7.094;2022-10-31T08:45:22;9.57;;;6.15;;
11988;SDS011;6054;50.966;7.094;2022-10-31T08:47:49;10.85;;;5.45;;
11988;SDS011;6054;50.966;7.094;2022-10-31T08:50:16;10.38;;;5.85;;
11988;SDS011;6054;50.966;7.094;2022-10-31T08:52:44;18.80;;;6.05;;
11988;SDS011;6054;50.966;7.094;2022-10-31T08:55:10;11.40;;;6.20;;
11988;SDS011;6054;50.966;7.094;2022-10-31T08:57:37;10.25;;;6.38;;
11988;SDS011;6054;50.966;7.094;2022-10-31T09:00:04;12.60;;;6.88;;
11988;SDS011;6054;50.966;7.094;2022-10-31T09:02:32;11.05;;;6.10;;
11988;SDS011;6054;50.966;7.094;2022-10-31T09:04:59;13.35;;;6.97;;
11988;SDS011;6054;50.966;7.094;2022-10-31T09:07:26;15.82;;;7.38;;
11988;SDS011;6054;50.966;7.094;2022-10-31T09:09:54;12.82;;;6.20;;
11988;SDS011;6054;50.966;7.094;2022-10-31T09:12:21;11.90;;;6.60;;
11988;SDS011;6054;50.966;7.094;2022-10-31T09:14:49;10.80;;;5.93;;
11988;SDS011;6054;50.966;7.094;2022-10-31T09:17:16;12.10;;;6.88;;
11988;SDS011;6054;50.966;7.094;2022-10-31T09:19:42;13.32;;;6.78;;
11988;SDS011;6054;50.966;7.094;2022-10-31T09:22:09;11.82;;;6.28;;
11988;SDS011;6054;50.966;7.094;2022-10-31T09:24:36;10.85;;;6.60;;
11988;SDS011;6054;50.966;7.094;2022-10-31T09:27:04;9.40;;;6.45;;
11988;SDS011;6054;50.966;7.094;2022-10-31T09:29:30;8.20;;;5.82;;
11988;SDS011;6054;50.966;7.094;2022-10-31T09:31:57;11.18;;;6.10;;
11988;SDS011;6054;50.966;7.094;2022-10-31T09:34:24;12.57;;;6.53;;
11988;SDS011;6054;50.966;7.094;2022-10-31T09:36:52;14.88;;;6.50;;
11988;SDS011;6054;50.966;7.094;2022-10-31T09:39:19;12.48;;;6.30;;
11988;SDS011;6054;50.966;7.094;2022-10-31T09:41:49;8.88;;;5.78;;
11988;SDS011;6054;50.966;7.094;2022-10-31T09:44:38;10.75;;;6.00;;
11988;SDS011;6054;50.966;7.094;2022-10-31T09:47:17;12.07;;;6.30;;
11988;SDS011;6054;50.966;7.094;2022-10-31T09:49:55;9.90;;;6.07;;
11988;SDS011;6054;50.966;7.094;2022-10-31T09:52:40;12.10;;;6.53;;
11988;SDS011;6054;50.966;7.094;2022-10-31T09:55:14;10.30;;;6.32;;
11988;SDS011;6054;50.966;7.094;2022-10-31T09:57:45;10.38;;;6.25;;
11988;SDS011;6054;50.966;7.094;2022-10-31T10:00:14;8.90;;;5.80;;
11988;SDS011;6054;50.966;7.094;2022-10-31T10:02:44;10.00;;;6.28;;
11988;SDS011;6054;50.966;7.094;2022-10-31T10:05:15;12.90;;;6.47;;
11988;SDS011;6054;50.966;7.094;2022-10-31T10:07:48;12.15;;;6.13;;
11988;SDS011;6054;50.966;7.094;2022-10-31T10:10:23;10.98;;;5.75;;
11988;SDS011;6054;50.966;7.094;2022-10-31T10:13:15;9.10;;;5.82;;
11988;SDS011;6054;50.966;7.094;2022-10-31T10:16:00;12.25;;;5.80;;
11988;SDS011;6054;50.966;7.094;2022-10-31T10:18:51;12.02;;;6.45;;
11988;SDS011;6054;50.966;7.094;2022-10-31T10:21:31;14.00;;;6.57;;
11988;SDS011;6054;50.966;7.094;2022-10-31T10:24:17;13.52;;;6.05;;
11988;SDS011;6054;50.966;7.094;2022-10-31T10:26:59;11.77;;;5.82;;
11988;SDS011;6054;50.966;7.094;2022-10-31T10:29:39;11.75;;;5.75;;
11988;SDS011;6054;50.966;7.094;2022-10-31T10:32:12;8.82;;;5.03;;
11988;SDS011;6054;50.966;7.094;2022-10-31T10:34:45;10.43;;;5.07;;
11988;SDS011;6054;50.966;7.094;2022-10-31T10:37:20;11.10;;;5.38;;
11988;SDS011;6054;50.966;7.094;2022-10-31T10:39:53;11.70;;;5.07;;
11988;SDS011;6054;50.966;7.094;2022-10-31T10:42:24;11.35;;;5.20;;
11988;SDS011;6054;50.966;7.094;2022-10-31T10:45:15;10.00;;;4.97;;
11988;SDS011;6054;50.966;7.094;2022-10-31T10:48:15;14.48;;;5.20;;
11988;SDS011;6054;50.966;7.094;2022-10-31T10:50:56;9.38;;;4.45;;
11988;SDS011;6054;50.966;7.094;2022-10-31T10:53:35;9.13;;;4.90;;
11988;SDS011;6054;50.966;7.094;2022-10-31T10:56:29;7.18;;;4.50;;
11988;SDS011;6054;50.966;7.094;2022-10-31T10:59:02;8.88;;;4.85;;
11988;SDS011;6054;50.966;7.094;2022-10-31T11:01:31;9.15;;;4.53;;
11988;SDS011;6054;50.966;7.094;2022-10-31T11:03:58;9.63;;;4.45;;
11988;SDS011;6054;50.966;7.094;2022-10-31T11:06:24;10.05;;;4.45;;
11988;SDS011;6054;50.966;7.094;2022-10-31T11:08:51;14.10;;;6.20;;
11988;SDS011;6054;50.966;7.094;2022-10-31T11:11:22;11.27;;;4.72;;
11988;SDS011;6054;50.966;7.094;2022-10-31T11:13:52;9.40;;;4.95;;
11988;SDS011;6054;50.966;7.094;2022-10-31T11:16:28;12.20;;;4.47;;
11988;SDS011;6054;50.966;7.094;2022-10-31T11:19:07;12.18;;;4.45;;
11988;SDS011;6054;50.966;7.094;2022-10-31T11:21:40;6.80;;;4.13;;
11988;SDS011;6054;50.966;7.094;2022-10-31T11:24:12;8.00;;;4.00;;
11988;SDS011;6054;50.966;7.094;2022-10-31T11:26:42;10.88;;;4.18;;
11988;SDS011;6054;50.966;7.094;2022-10-31T11:29:12;8.90;;;4.22;;
11988;SDS011;6054;50.966;7.094;2022-10-31T11:31:42;11.50;;;4.10;;
11988;SDS011;6054;50.966;7.094;2022-10-31T11:34:16;9.60;;;4.22;;
11988;SDS011;6054;50.966;7.094;2022-10-31T11:36:50;8.43;;;4.18;;
11988;SDS011;6054;50.966;7.094;2022-10-31T11:39:18;6.85;;;4.60;;
11988;SDS011;6054;50.966;7.094;2022-10-31T11:41:47;12.65;;;4.47;;
11988;SDS011;6054;50.966;7.094;2022-10-31T11:44:17;7.43;;;3.78;;
11988;SDS011;6054;50.966;7.094;2022-10-31T11:46:47;10.48;;;4.53;;
11988;SDS011;6054;50.966;7.094;2022-10-31T11:49:17;8.90;;;4.00;;
11988;SDS011;6054;50.966;7.094;2022-10-31T11:51:47;6.72;;;4.13;;
11988;SDS011;6054;50.966;7.094;2022-10-31T11:54:20;8.18;;;3.70;;
11988;SDS011;6054;50.966;7.094;2022-10-31T11:56:50;10.05;;;4.35;;
11988;SDS011;6054;50.966;7.094;2022-10-31T11:59:18;9.05;;;4.15;;
11988;SDS011;6054;50.966;7.094;2022-10-31T12:01:52;9.88;;;4.20;;
11988;SDS011;6054;50.966;7.094;2022-10-31T12:04:23;7.50;;;3.58;;
11988;SDS011;6054;50.966;7.094;2022-10-31T12:06:55;11.25;;;4.40;;
11988;SDS011;6054;50.966;7.094;2022-10-31T12:09:22;9.27;;;4.47;;
11988;SDS011;6054;50.966;7.094;2022-10-31T12:11:54;7.35;;;4.05;;
11988;SDS011;6054;50.966;7.094;2022-10-31T12:14:31;8.90;;;4.30;;
11988;SDS011;6054;50.966;7.094;2022-10-31T12:17:05;9.65;;;4.65;;
11988;SDS011;6054;50.966;7.094;2022-10-31T12:19:41;9.48;;;3.97;;
11988;SDS011;6054;50.966;7.094;2022-10-31T12:22:13;8.48;;;4.22;;
11988;SDS011;6054;50.966;7.094;2022-10-31T12:24:50;8.35;;;4.15;;
11988;SDS011;6054;50.966;7.094;2022-10-31T12:30:42;8.02;;;4.30;;
11988;SDS011;6054;50.966;7.094;2022-10-31T12:33:28;7.72;;;4.40;;
11988;SDS011;6054;50.966;7.094;2022-10-31T12:36:17;9.82;;;4.10;;
11988;SDS011;6054;50.966;7.094;2022-10-31T12:38:59;10.32;;;4.15;;
11988;SDS011;6054;50.966;7.094;2022-10-31T12:41:44;12.30;;;4.32;;
11988;SDS011;6054;50.966;7.094;2022-10-31T12:44:25;9.75;;;4.38;;
11988;SDS011;6054;50.966;7.094;2022-10-31T12:47:11;11.90;;;4.13;;
11988;SDS011;6054;50.966;7.094;2022-10-31T12:50:05;13.32;;;4.13;;
11988;SDS011;6054;50.966;7.094;2022-10-31T12:52:50;8.32;;;4.30;;
11988;SDS011;6054;50.966;7.094;2022-10-31T12:55:30;11.07;;;4.10;;
11988;SDS011;6054;50.966;7.094;2022-10-31T12:58:10;7.75;;;4.00;;
11988;SDS011;6054;50.966;7.094;2022-10-31T13:00:44;8.85;;;4.05;;
11988;SDS011;6054;50.966;7.094;2022-10-31T13:03:19;10.55;;;3.53;;
11988;SDS011;6054;50.966;7.094;2022-10-31T13:05:53;9.07;;;3.63;;
11988;SDS011;6054;50.966;7.094;2022-10-31T13:08:24;10.63;;;4.32;;
11988;SDS011;6054;50.966;7.094;2022-10-31T13:10:58;8.40;;;3.85;;
11988;SDS011;6054;50.966;7.094;2022-10-31T13:13:32;11.80;;;3.88;;
11988;SDS011;6054;50.966;7.094;2022-10-31T13:16:03;11.52;;;3.67;;
11988;SDS011;6054;50.966;7.094;2022-10-31T13:18:38;11.60;;;3.67;;
11988;SDS011;6054;50.966;7.094;2022-10-31T13:21:11;6.10;;;3.40;;
11988;SDS011;6054;50.966;7.094;2022-10-31T13:23:42;8.60;;;3.53;;
11988;SDS011;6054;50.966;7.094;2022-10-31T13:26:13;9.23;;;3.75;;
11988;SDS011;6054;50.966;7.094;2022-10-31T13:28:47;16.45;;;4.30;;
11988;SDS011;6054;50.966;7.094;2022-10-31T13:31:18;8.57;;;3.30;;
11988;SDS011;6054;50.966;7.094;2022-10-31T13:33:46;5.15;;;3.45;;
11988;SDS011;6054;50.966;7.094;2022-10-31T13:36:21;7.70;;;3.85;;
11988;SDS011;6054;50.966;7.094;2022-10-31T13:38:54;12.93;;;3.88;;
11988;SDS011;6054;50.966;7.094;2022-10-31T13:41:31;8.25;;;3.67;;
11988;SDS011;6054;50.966;7.094;2022-10-31T13:44:04;5.57;;;3.20;;
11988;SDS011;6054;50.966;7.094;2022-10-31T13:46:37;8.30;;;3.63;;
11988;SDS011;6054;50.966;7.094;2022-10-31T13:49:21;8.07;;;3.55;;
11988;SDS011;6054;50.966;7.094;2022-10-31T13:51:52;5.70;;;3.60;;
11988;SDS011;6054;50.966;7.094;2022-10-31T13:54:20;13.90;;;3.72;;
11988;SDS011;6054;50.966;7.094;2022-10-31T13:56:48;9.18;;;3.95;;
11988;SDS011;6054;50.966;7.094;2022-10-31T13:59:19;9.63;;;3.60;;
11988;SDS011;6054;50.966;7.094;2022-10-31T14:01:49;6.50;;;3.20;;
11988;SDS011;6054;50.966;7.094;2022-10-31T14:04:19;9.88;;;3.42;;
11988;SDS011;6054;50.966;7.094;2022-10-31T14:06:52;8.88;;;3.45;;
11988;SDS011;6054;50.966;7.094;2022-10-31T14:09:28;7.25;;;3.33;;
11988;SDS011;6054;50.966;7.094;2022-10-31T14:11:57;8.13;;;3.72;;
11988;SDS011;6054;50.966;7.094;2022-10-31T14:14:30;8.27;;;3.75;;
11988;SDS011;6054;50.966;7.094;2022-10-31T14:17:00;9.60;;;3.63;;
11988;SDS011;6054;50.966;7.094;2022-10-31T14:19:28;7.38;;;3.55;;
11988;SDS011;6054;50.966;7.094;2022-10-31T14:21:56;8.77;;;3.50;;
11988;SDS011;6054;50.966;7.094;2022-10-31T14:24:36;7.85;;;3.33;;
11988;SDS011;6054;50.966;7.094;2022-10-31T14:27:04;8.13;;;3.30;;
11988;SDS011;6054;50.966;7.094;2022-10-31T14:30:13;11.23;;;3.85;;
11988;SDS011;6054;50.966;7.094;2022-10-31T14:32:41;10.57;;;3.92;;
11988;SDS011;6054;50.966;7.094;2022-10-31T14:35:09;7.38;;;3.35;;
11988;SDS011;6054;50.966;7.094;2022-10-31T14:37:48;10.18;;;4.00;;
11988;SDS011;6054;50.966;7.094;2022-10-31T14:40:35;8.32;;;3.88;;
11988;SDS011;6054;50.966;7.094;2022-10-31T14:46:12;6.55;;;3.47;;
11988;SDS011;6054;50.966;7.094;2022-10-31T14:48:50;10.95;;;3.40;;
11988;SDS011;6054;50.966;7.094;2022-10-31T14:51:32;8.05;;;3.92;;
11988;SDS011;6054;50.966;7.094;2022-10-31T14:54:03;6.30;;;3.65;;
11988;SDS011;6054;50.966;7.094;2022-10-31T14:56:33;9.43;;;3.92;;
11988;SDS011;6054;50.966;7.094;2022-10-31T14:59:02;10.52;;;3.83;;
11988;SDS011;6054;50.966;7.094;2022-10-31T15:01:34;8.45;;;3.50;;
11988;SDS011;6054;50.966;7.094;2022-10-31T15:04:03;8.82;;;3.50;;
11988;SDS011;6054;50.966;7.094;2022-10-31T15:06:36;7.40;;;3.50;;
11988;SDS011;6054;50.966;7.094;2022-10-31T15:09:21;12.77;;;3.55;;
11988;SDS011;6054;50.966;7.094;2022-10-31T15:11:49;5.43;;;2.90;;
11988;SDS011;6054;50.966;7.094;2022-10-31T15:14:23;8.15;;;3.17;;
11988;SDS011;6054;50.966;7.094;2022-10-31T15:16:51;7.75;;;3.40;;
11988;SDS011;6054;50.966;7.094;2022-10-31T15:19:20;11.43;;;3.13;;
11988;SDS011;6054;50.966;7.094;2022-10-31T15:21:49;10.07;;;3.63;;
11988;SDS011;6054;50.966;7.094;2022-10-31T15:24:17;9.30;;;3.15;;
11988;SDS011;6054;50.966;7.094;2022-10-31T15:26:48;6.13;;;3.00;;
11988;SDS011;6054;50.966;7.094;2022-10-31T15:29:17;9.48;;;3.53;;